Wetterdaten: Woche 23.01.06 - 29.01.06 (KW4)
Datum Zeit Temperatur Luftfeuchte Luftdruck Niederschlag Wind Richtung Sonne Solar Taupunkt Windchill
23.01.2006 00:00 1.0 C 66 % 1034.0 hPa 0.0 l/m 0.4 km/h (0 Bft) N-NO 0.00 h 0 W/m -4.6 C 0.9 C
23.01.2006 01:00 0.5 C 68 % 1034.1 hPa 0.0 l/m 1.3 km/h (1 Bft) N-NO 0.00 h 0 W/m -4.6 C 0.3 C
23.01.2006 02:00 0.0 C 66 % 1034.2 hPa 0.0 l/m 1.5 km/h (1 Bft) N-NO 0.00 h 0 W/m -5.7 C -0.3 C
23.01.2006 03:00 -1.2 C 62 % 1034.4 hPa 0.0 l/m 4.2 km/h (1 Bft) O-NO 0.00 h 0 W/m -7.5 C -2.3 C
23.01.2006 04:00 -2.4 C 63 % 1034.5 hPa 0.0 l/m 8.4 km/h (2 Bft) O-SO 0.00 h 0 W/m -8.5 C -5.5 C
23.01.2006 05:00 -3.4 C 62 % 1034.7 hPa 0.0 l/m 5.8 km/h (2 Bft) O 0.00 h 0 W/m -9.6 C -5.5 C
23.01.2006 06:00 -3.9 C 63 % 1035.4 hPa 0.0 l/m 5.5 km/h (1 Bft) O-SO 0.00 h 0 W/m -9.8 C -6.0 C
23.01.2006 07:00 -3.9 C 60 % 1035.8 hPa 0.0 l/m 6.3 km/h (2 Bft) N-NO 0.00 h 0 W/m -10.5 C -6.0 C
23.01.2006 08:00 -4.2 C 61 % 1035.9 hPa 0.0 l/m 5.7 km/h (1 Bft) O-NO 0.00 h 22 W/m -10.6 C -6.2 C
23.01.2006 09:00 -4.1 C 60 % 1035.8 hPa 0.0 l/m 8.4 km/h (2 Bft) NO 0.10 h 103 W/m -10.7 C -6.8 C
23.01.2006 10:00 -3.8 C 58 % 1036.4 hPa 0.0 l/m 6.9 km/h (2 Bft) O 0.00 h 97 W/m -10.9 C -6.0 C
23.01.2006 11:00 -3.5 C 56 % 1036.8 hPa 0.0 l/m 7.8 km/h (2 Bft) NO 0.00 h 143 W/m -11.0 C -6.2 C
23.01.2006 12:00 -2.9 C 56 % 1035.9 hPa 0.0 l/m 9.9 km/h (2 Bft) O 0.00 h 152 W/m -10.4 C -6.1 C
23.01.2006 13:00 -2.6 C 56 % 1035.6 hPa 0.0 l/m 8.0 km/h (2 Bft) NO 0.00 h 138 W/m -10.2 C -5.2 C
23.01.2006 14:00 -2.7 C 53 % 1035.3 hPa 0.0 l/m 7.4 km/h (2 Bft) NO 0.20 h 156 W/m -11.0 C -5.3 C
23.01.2006 15:00 -1.7 C 47 % 1034.5 hPa 0.0 l/m 5.1 km/h (1 Bft) N-NO 0.93 h 196 W/m -11.5 C -3.2 C
23.01.2006 16:00 -2.0 C 47 % 1034.5 hPa 0.0 l/m 6.7 km/h (2 Bft) NO 0.83 h 69 W/m -11.8 C -4.1 C
23.01.2006 17:00 -3.0 C 50 % 1034.7 hPa 0.0 l/m 4.8 km/h (1 Bft) NO 0.03 h 12 W/m -12.0 C -4.6 C
23.01.2006 18:00 -3.5 C 49 % 1035.4 hPa 0.0 l/m 4.0 km/h (1 Bft) NO 0.00 h 0 W/m -12.6 C -4.8 C
23.01.2006 19:00 -4.2 C 50 % 1035.9 hPa 0.0 l/m 2.3 km/h (1 Bft) O 0.00 h 0 W/m -13.1 C -4.8 C
23.01.2006 20:00 -4.7 C 50 % 1036.0 hPa 0.0 l/m 3.8 km/h (1 Bft) O 0.00 h 0 W/m -13.5 C -6.0 C
23.01.2006 21:00 -5.4 C 50 % 1036.1 hPa 0.0 l/m 2.9 km/h (1 Bft) O-SO 0.00 h 0 W/m -14.2 C -6.2 C
23.01.2006 22:00 -6.0 C 48 % 1036.2 hPa 0.0 l/m 1.4 km/h (1 Bft) N-NO 0.00 h 0 W/m -15.3 C -6.5 C
23.01.2006 23:00 -6.4 C 46 % 1036.2 hPa 0.0 l/m 2.3 km/h (1 Bft) N-NO 0.00 h 0 W/m -15.9 C -7.1 C
24.01.2006 00:00 -6.8 C 44 % 1036.3 hPa 0.0 l/m 3.7 km/h (1 Bft) NO 0.00 h 0 W/m -16.9 C -8.0 C
24.01.2006 01:00 -7.0 C 45 % 1036.3 hPa 0.0 l/m 2.8 km/h (1 Bft) N-NO 0.00 h 0 W/m -16.8 C -8.2 C
24.01.2006 02:00 -7.2 C 47 % 1036.3 hPa 0.0 l/m 3.8 km/h (1 Bft) O-NO 0.00 h 0 W/m -16.7 C -8.8 C
24.01.2006 03:00 -7.3 C 48 % 1036.3 hPa 0.0 l/m 9.0 km/h (2 Bft) O-SO 0.00 h 0 W/m -16.5 C -11.0 C
24.01.2006 04:00 -7.8 C 50 % 1035.9 hPa 0.0 l/m 11.0 km/h (2 Bft) O-SO 0.00 h 0 W/m -16.4 C -12.9 C
24.01.2006 05:00 -8.4 C 54 % 1035.5 hPa 0.0 l/m 9.9 km/h (2 Bft) O-SO 0.00 h 0 W/m -16.1 C -13.2 C
24.01.2006 06:00 -9.1 C 57 % 1036.0 hPa 0.0 l/m 7.1 km/h (2 Bft) O-SO 0.00 h 0 W/m -16.1 C -12.7 C
24.01.2006 07:00 -9.6 C 61 % 1036.7 hPa 0.0 l/m 7.0 km/h (2 Bft) O-SO 0.00 h 0 W/m -15.8 C -13.4 C
24.01.2006 08:00 -9.5 C 63 % 1036.7 hPa 0.0 l/m 1.3 km/h (1 Bft) O-SO 0.00 h 8 W/m -15.2 C -9.9 C
24.01.2006 09:00 -7.6 C 60 % 1036.4 hPa 0.0 l/m 0.9 km/h (0 Bft) SO 0.00 h 39 W/m -14.1 C -7.8 C
24.01.2006 10:00 -7.0 C 59 % 1036.3 hPa 0.0 l/m 6.1 km/h (2 Bft) O 0.00 h 86 W/m -13.6 C -9.6 C
24.01.2006 11:00 -6.4 C 57 % 1036.2 hPa 0.0 l/m 2.1 km/h (1 Bft) NO 0.00 h 110 W/m -13.4 C -7.0 C
24.01.2006 12:00 -5.5 C 56 % 1035.0 hPa 0.0 l/m 3.2 km/h (1 Bft) O-NO 0.00 h 131 W/m -12.9 C -6.6 C
24.01.2006 13:00 -4.9 C 55 % 1034.3 hPa 0.0 l/m 6.3 km/h (2 Bft) O-SO 0.00 h 155 W/m -12.4 C -7.6 C
24.01.2006 14:00 -4.5 C 56 % 1033.8 hPa 0.0 l/m 4.1 km/h (1 Bft) O-SO 0.00 h 128 W/m -12.0 C -6.0 C
24.01.2006 15:00 -4.6 C 56 % 1033.8 hPa 0.0 l/m 7.2 km/h (2 Bft) O-SO 0.00 h 85 W/m -11.9 C -7.5 C
24.01.2006 16:00 -5.7 C 58 % 1034.0 hPa 0.0 l/m 7.0 km/h (2 Bft) O-SO 0.00 h 49 W/m -12.6 C -8.9 C
24.01.2006 17:00 -7.2 C 64 % 1033.4 hPa 0.0 l/m 6.1 km/h (2 Bft) O-SO 0.07 h 11 W/m -12.8 C -10.1 C
24.01.2006 18:00 -8.4 C 69 % 1033.4 hPa 0.0 l/m 1.9 km/h (1 Bft) O-SO 0.00 h 0 W/m -13.0 C -9.2 C
24.01.2006 19:00 -8.9 C 71 % 1033.5 hPa 0.0 l/m 0.1 km/h (0 Bft) O-SO 0.00 h 0 W/m -13.2 C -8.9 C
24.01.2006 20:00 -9.4 C 74 % 1033.2 hPa 0.0 l/m 0.0 km/h (0 Bft) N 0.00 h 0 W/m -13.2 C -9.4 C
24.01.2006 21:00 -9.7 C 74 % 1032.6 hPa 0.0 l/m 0.0 km/h (0 Bft) N 0.00 h 0 W/m -13.4 C -9.7 C
24.01.2006 22:00 -9.9 C 74 % 1032.5 hPa 0.0 l/m 0.1 km/h (0 Bft) O-SO 0.00 h 0 W/m -13.6 C -9.9 C
24.01.2006 23:00 -10.3 C 73 % 1031.6 hPa 0.0 l/m 0.0 km/h (0 Bft) N 0.00 h 0 W/m -14.2 C -10.3 C
25.01.2006 00:00 -10.4 C 74 % 1031.6 hPa 0.0 l/m 0.0 km/h (0 Bft) N 0.00 h 0 W/m -14.2 C -10.4 C
25.01.2006 01:00 -9.5 C 76 % 1030.8 hPa 0.0 l/m 0.0 km/h (0 Bft) N 0.00 h 0 W/m -12.9 C -9.5 C
25.01.2006 02:00 -8.3 C 77 % 1030.3 hPa 0.0 l/m 0.0 km/h (0 Bft) N 0.00 h 0 W/m -11.6 C -8.3 C
25.01.2006 03:00 -8.0 C 75 % 1029.8 hPa 0.0 l/m 0.1 km/h (0 Bft) N 0.00 h 0 W/m -11.7 C -8.0 C
25.01.2006 04:00 -7.7 C 75 % 1029.0 hPa 0.0 l/m 0.0 km/h (0 Bft) N 0.00 h 0 W/m -11.4 C -7.7 C
25.01.2006 05:00 -7.3 C 75 % 1028.0 hPa 0.0 l/m 1.2 km/h (1 Bft) SO 0.00 h 0 W/m -11.0 C -7.5 C
25.01.2006 06:00 -7.0 C 76 % 1027.5 hPa 0.0 l/m 1.5 km/h (1 Bft) O-SO 0.00 h 0 W/m -10.5 C -7.2 C
25.01.2006 07:00 -6.7 C 74 % 1026.9 hPa 0.0 l/m 0.3 km/h (0 Bft) O-SO 0.00 h 0 W/m -10.5 C -6.9 C
25.01.2006 08:00 -5.7 C 78 % 1026.6 hPa 0.0 l/m 0.4 km/h (0 Bft) SO 0.00 h 8 W/m -8.9 C -5.7 C
25.01.2006 09:00 -5.5 C 76 % 1025.7 hPa 0.0 l/m 0.6 km/h (0 Bft) SW 0.00 h 48 W/m -9.1 C -5.5 C
25.01.2006 10:00 -4.8 C 74 % 1025.1 hPa 0.0 l/m 1.3 km/h (1 Bft) W-SW 0.00 h 74 W/m -8.7 C -4.9 C
25.01.2006 11:00 -3.8 C 72 % 1024.1 hPa 0.0 l/m 0.5 km/h (0 Bft) W-NW 0.00 h 162 W/m -8.1 C -3.9 C
25.01.2006 12:00 -2.4 C 70 % 1022.8 hPa 0.0 l/m 0.5 km/h (0 Bft) W 0.00 h 195 W/m -7.1 C -2.5 C
25.01.2006 13:00 -0.5 C 67 % 1021.1 hPa 0.0 l/m 8.4 km/h (2 Bft) S 0.00 h 186 W/m -5.9 C -3.1 C
25.01.2006 14:00 0.2 C 65 % 1019.9 hPa 0.0 l/m 12.2 km/h (2 Bft) S-SW 0.23 h 206 W/m -5.6 C -3.4 C
25.01.2006 15:00 1.3 C 61 % 1018.8 hPa 0.0 l/m 13.0 km/h (3 Bft) S 0.83 h 216 W/m -5.5 C -2.4 C
25.01.2006 16:00 0.9 C 62 % 1018.0 hPa 0.0 l/m 8.0 km/h (2 Bft) S 0.75 h 82 W/m -5.5 C -1.5 C
25.01.2006 17:00 -0.2 C 69 % 1017.6 hPa 0.0 l/m 5.9 km/h (2 Bft) S-SO 0.03 h 11 W/m -5.2 C -1.9 C
25.01.2006 18:00 -0.4 C 71 % 1017.6 hPa 0.0 l/m 3.7 km/h (1 Bft) O-SO 0.00 h 0 W/m -5.1 C -1.6 C
25.01.2006 19:00 -0.2 C 72 % 1017.2 hPa 0.0 l/m 9.2 km/h (2 Bft) SO 0.00 h 0 W/m -4.6 C -2.9 C
25.01.2006 20:00 0.5 C 72 % 1016.4 hPa 0.0 l/m 6.2 km/h (2 Bft) SO 0.00 h 0 W/m -4.1 C -1.3 C
25.01.2006 21:00 1.3 C 64 % 1016.3 hPa 0.0 l/m 13.2 km/h (3 Bft) W 0.00 h 0 W/m -4.7 C -2.3 C
25.01.2006 22:00 0.9 C 61 % 1016.4 hPa 0.0 l/m 9.6 km/h (2 Bft) W-NW 0.00 h 0 W/m -5.7 C -1.9 C
25.01.2006 23:00 0.1 C 64 % 1016.5 hPa 0.0 l/m 8.4 km/h (2 Bft) W-NW 0.00 h 0 W/m -6.0 C -2.7 C
26.01.2006 00:00 -0.6 C 66 % 1016.3 hPa 0.0 l/m 3.4 km/h (1 Bft) W-NW 0.00 h 0 W/m -6.1 C -1.4 C
26.01.2006 01:00 -1.4 C 70 % 1015.7 hPa 0.0 l/m 0.1 km/h (0 Bft) W-SW 0.00 h 0 W/m -6.2 C -1.4 C
26.01.2006 02:00 -1.1 C 70 % 1014.7 hPa 0.0 l/m 0.0 km/h (0 Bft) N 0.00 h 0 W/m -5.9 C -1.1 C
26.01.2006 03:00 -1.2 C 72 % 1014.6 hPa 0.0 l/m 0.9 km/h (0 Bft) SO 0.00 h 0 W/m -5.5 C -1.4 C
26.01.2006 04:00 -1.4 C 74 % 1013.7 hPa 0.0 l/m 0.2 km/h (0 Bft) N 0.00 h 0 W/m -5.4 C -1.4 C
26.01.2006 05:00 -1.6 C 75 % 1013.6 hPa 0.0 l/m 0.6 km/h (0 Bft) O-NO 0.00 h 0 W/m -5.4 C -1.6 C
26.01.2006 06:00 -1.4 C 77 % 1013.6 hPa 0.0 l/m 0.0 km/h (0 Bft) N 0.00 h 0 W/m -4.9 C -1.4 C
26.01.2006 07:00 -1.5 C 78 % 1013.6 hPa 0.0 l/m 0.0 km/h (0 Bft) N 0.00 h 0 W/m -4.8 C -1.5 C
26.01.2006 08:00 -1.6 C 81 % 1013.6 hPa 0.0 l/m 0.2 km/h (0 Bft) O-SO 0.00 h 14 W/m -4.5 C -1.6 C
26.01.2006 09:00 -1.3 C 83 % 1013.6 hPa 0.0 l/m 0.1 km/h (0 Bft) O-SO 0.00 h 71 W/m -3.8 C -1.3 C
26.01.2006 10:00 -0.7 C 80 % 1013.5 hPa 0.0 l/m 0.0 km/h (0 Bft) N 0.00 h 145 W/m -3.8 C -0.7 C
26.01.2006 11:00 -0.1 C 74 % 1013.4 hPa 0.0 l/m 0.0 km/h (0 Bft) N 0.00 h 200 W/m -4.2 C -0.1 C
26.01.2006 12:00 0.3 C 70 % 1013.3 hPa 0.0 l/m 2.3 km/h (1 Bft) W-NW 0.00 h 202 W/m -4.5 C -0.4 C
26.01.2006 13:00 0.4 C 70 % 1013.3 hPa 0.0 l/m 0.9 km/h (0 Bft) W-NW 0.00 h 134 W/m -4.4 C 0.3 C
26.01.2006 14:00 0.5 C 75 % 1013.3 hPa 0.0 l/m 0.7 km/h (0 Bft) W-NW 0.00 h 124 W/m -3.5 C 0.3 C
26.01.2006 15:00 0.3 C 76 % 1013.3 hPa 0.0 l/m 0.1 km/h (0 Bft) N 0.00 h 45 W/m -3.4 C 0.3 C
26.01.2006 16:00 0.3 C 71 % 1013.3 hPa 0.0 l/m 0.0 km/h (0 Bft) N 0.00 h 21 W/m -4.2 C 0.3 C
26.01.2006 17:00 -0.3 C 70 % 1013.5 hPa 0.0 l/m 0.0 km/h (0 Bft) N 0.00 h 8 W/m -5.2 C -0.3 C
26.01.2006 18:00 -0.5 C 71 % 1014.5 hPa 0.0 l/m 0.2 km/h (0 Bft) N-NO 0.00 h 0 W/m -5.1 C -0.5 C
26.01.2006 19:00 -0.7 C 70 % 1014.9 hPa 0.0 l/m 0.2 km/h (0 Bft) N 0.00 h 0 W/m -5.5 C -0.7 C
26.01.2006 20:00 -1.6 C 72 % 1015.7 hPa 0.0 l/m 0.0 km/h (0 Bft) N 0.00 h 0 W/m -5.9 C -1.6 C
26.01.2006 21:00 -1.8 C 73 % 1015.7 hPa 0.0 l/m 0.6 km/h (0 Bft) N-NO 0.00 h 0 W/m -6.0 C -2.0 C
26.01.2006 22:00 -1.6 C 71 % 1016.2 hPa 0.0 l/m 1.1 km/h (1 Bft) NO 0.00 h 0 W/m -6.2 C -1.6 C
26.01.2006 23:00 -2.0 C 66 % 1017.0 hPa 0.0 l/m 1.8 km/h (1 Bft) NO 0.00 h 0 W/m -7.5 C -2.5 C
27.01.2006 00:00 -2.9 C 63 % 1017.2 hPa 0.0 l/m 0.8 km/h (0 Bft) O-NO 0.00 h 0 W/m -8.9 C -3.1 C
27.01.2006 01:00 -3.8 C 64 % 1017.6 hPa 0.0 l/m 1.5 km/h (1 Bft) O-SO 0.00 h 0 W/m -9.6 C -4.3 C
27.01.2006 02:00 -3.9 C 63 % 1018.1 hPa 0.0 l/m 0.5 km/h (0 Bft) O-SO 0.00 h 0 W/m -10.0 C -4.0 C
27.01.2006 03:00 -4.5 C 64 % 1018.2 hPa 0.0 l/m 0.7 km/h (0 Bft) NO 0.00 h 0 W/m -10.4 C -4.7 C
27.01.2006 04:00 -5.5 C 65 % 1018.4 hPa 0.0 l/m 0.7 km/h (0 Bft) O 0.00 h 0 W/m -10.9 C -5.6 C
27.01.2006 05:00 -6.1 C 67 % 1018.5 hPa 0.0 l/m 0.3 km/h (0 Bft) O-NO 0.00 h 0 W/m -11.2 C -6.1 C
27.01.2006 06:00 -6.2 C 68 % 1019.0 hPa 0.0 l/m 1.4 km/h (1 Bft) O 0.00 h 0 W/m -11.2 C -6.6 C
27.01.2006 07:00 -5.8 C 69 % 1019.5 hPa 0.0 l/m 0.6 km/h (0 Bft) O 0.00 h 0 W/m -10.6 C -6.0 C
27.01.2006 08:00 -5.3 C 67 % 1019.4 hPa 0.0 l/m 1.8 km/h (1 Bft) O 0.00 h 16 W/m -10.3 C -5.7 C
27.01.2006 09:00 -4.6 C 66 % 1019.3 hPa 0.0 l/m 1.2 km/h (1 Bft) SO 0.00 h 42 W/m -10.0 C -4.9 C
27.01.2006 10:00 -4.0 C 64 % 1019.3 hPa 0.0 l/m 2.3 km/h (1 Bft) O 0.00 h 81 W/m -9.8 C -4.6 C
27.01.2006 11:00 -3.3 C 61 % 1019.6 hPa 0.0 l/m 7.5 km/h (2 Bft) O-SO 0.00 h 155 W/m -9.6 C -6.0 C
27.01.2006 12:00 -2.2 C 58 % 1018.9 hPa 0.0 l/m 4.0 km/h (1 Bft) O-NO 0.87 h 309 W/m -9.4 C -3.5 C
27.01.2006 13:00 -1.6 C 56 % 1018.0 hPa 0.0 l/m 7.6 km/h (2 Bft) O-SO 0.38 h 241 W/m -9.1 C -4.1 C
27.01.2006 14:00 -1.7 C 57 % 1017.8 hPa 0.0 l/m 15.7 km/h (3 Bft) O-SO 0.05 h 150 W/m -9.2 C -6.6 C
27.01.2006 15:00 -1.9 C 58 % 1017.8 hPa 0.0 l/m 11.5 km/h (2 Bft) O-SO 0.00 h 85 W/m -9.1 C -5.7 C
27.01.2006 16:00 -2.1 C 57 % 1017.9 hPa 0.0 l/m 9.7 km/h (2 Bft) O-SO 0.00 h 52 W/m -9.4 C -5.4 C
27.01.2006 17:00 -3.3 C 59 % 1018.0 hPa 0.0 l/m 1.9 km/h (1 Bft) NO 0.00 h 10 W/m -10.2 C -3.7 C
27.01.2006 18:00 -3.3 C 59 % 1018.5 hPa 0.0 l/m 2.7 km/h (1 Bft) O 0.00 h 0 W/m -10.2 C -4.3 C
27.01.2006 19:00 -3.2 C 58 % 1019.1 hPa 0.0 l/m 0.8 km/h (0 Bft) O-NO 0.00 h 0 W/m -10.3 C -3.3 C
27.01.2006 20:00 -3.2 C 58 % 1019.1 hPa 0.0 l/m 2.8 km/h (1 Bft) NO 0.00 h 0 W/m -10.4 C -4.0 C
27.01.2006 21:00 -3.6 C 61 % 1019.1 hPa 0.0 l/m 1.3 km/h (1 Bft) O-NO 0.00 h 0 W/m -10.0 C -3.9 C
27.01.2006 22:00 -5.0 C 66 % 1019.3 hPa 0.0 l/m 0.1 km/h (0 Bft) N 0.00 h 0 W/m -10.4 C -5.0 C
27.01.2006 23:00 -5.4 C 69 % 1019.4 hPa 0.0 l/m 3.2 km/h (1 Bft) O-SO 0.00 h 0 W/m -10.1 C -6.6 C
28.01.2006 00:00 -4.9 C 68 % 1019.4 hPa 0.0 l/m 0.4 km/h (0 Bft) O-SO 0.00 h 0 W/m -9.9 C -5.0 C
28.01.2006 01:00 -4.8 C 67 % 1019.3 hPa 0.0 l/m 0.1 km/h (0 Bft) O-SO 0.00 h 0 W/m -10.0 C -4.8 C
28.01.2006 02:00 -5.3 C 72 % 1020.0 hPa 0.0 l/m 0.0 km/h (0 Bft) N 0.00 h 0 W/m -9.6 C -5.3 C
28.01.2006 03:00 -5.5 C 74 % 1020.4 hPa 0.0 l/m 0.0 km/h (0 Bft) N 0.00 h 0 W/m -9.4 C -5.5 C
28.01.2006 04:00 -5.6 C 76 % 1020.5 hPa 0.0 l/m 0.0 km/h (0 Bft) N 0.00 h 0 W/m -9.2 C -5.6 C
28.01.2006 05:00 -5.3 C 76 % 1020.4 hPa 0.0 l/m 0.0 km/h (0 Bft) N 0.00 h 0 W/m -8.8 C -5.3 C
28.01.2006 06:00 -5.4 C 75 % 1020.3 hPa 0.0 l/m 0.0 km/h (0 Bft) N 0.00 h 0 W/m -9.1 C -5.4 C
28.01.2006 07:00 -5.8 C 78 % 1020.5 hPa 0.0 l/m 0.1 km/h (0 Bft) O-NO 0.00 h 0 W/m -9.0 C -5.8 C
28.01.2006 08:00 -5.9 C 78 % 1020.5 hPa 0.0 l/m 0.3 km/h (0 Bft) O-NO 0.00 h 25 W/m -9.1 C -6.0 C
28.01.2006 09:00 -4.8 C 73 % 1020.3 hPa 0.0 l/m 0.1 km/h (0 Bft) N 0.37 h 127 W/m -8.9 C -4.8 C
28.01.2006 10:00 -3.4 C 69 % 1020.1 hPa 0.0 l/m 0.0 km/h (0 Bft) N 0.00 h 151 W/m -8.2 C -3.4 C
28.01.2006 11:00 -2.1 C 63 % 1019.9 hPa 0.0 l/m 0.0 km/h (0 Bft) N 0.00 h 127 W/m -8.2 C -2.1 C
28.01.2006 12:00 -0.3 C 57 % 1019.5 hPa 0.0 l/m 0.6 km/h (0 Bft) NW 0.60 h 335 W/m -7.8 C -0.5 C
28.01.2006 13:00 2.3 C 48 % 1018.2 hPa 0.0 l/m 1.9 km/h (1 Bft) NW 1.00 h 349 W/m -7.7 C 2.1 C
28.01.2006 14:00 4.2 C 42 % 1017.0 hPa 0.0 l/m 8.7 km/h (2 Bft) O-SO 0.77 h 253 W/m -7.7 C 2.4 C
28.01.2006 15:00 4.2 C 42 % 1016.9 hPa 0.0 l/m 16.2 km/h (3 Bft) O-SO 0.13 h 133 W/m -7.6 C 0.7 C
28.01.2006 16:00 3.2 C 47 % 1017.7 hPa 0.0 l/m 2.0 km/h (1 Bft) O-SO 0.00 h 45 W/m -7.0 C 2.7 C
28.01.2006 17:00 -0.6 C 64 % 1018.7 hPa 0.0 l/m 0.6 km/h (0 Bft) N-NW 0.00 h 8 W/m -6.5 C -0.6 C
28.01.2006 18:00 -1.9 C 67 % 1019.9 hPa 0.0 l/m 0.9 km/h (0 Bft) NW 0.00 h 0 W/m -7.1 C -2.1 C
28.01.2006 19:00 -2.2 C 68 % 1020.2 hPa 0.0 l/m 0.2 km/h (0 Bft) N 0.00 h 0 W/m -7.2 C -2.2 C
28.01.2006 20:00 -2.4 C 69 % 1020.0 hPa 0.0 l/m 0.6 km/h (0 Bft) NW 0.00 h 0 W/m -7.2 C -2.6 C
28.01.2006 21:00 -2.7 C 72 % 1020.8 hPa 0.0 l/m 0.0 km/h (0 Bft) N 0.00 h 0 W/m -7.1 C -2.7 C
28.01.2006 22:00 -3.3 C 75 % 1021.2 hPa 0.0 l/m 0.2 km/h (0 Bft) NW 0.00 h 0 W/m -7.1 C -3.3 C
28.01.2006 23:00 -3.9 C 77 % 1021.8 hPa 0.0 l/m 0.1 km/h (0 Bft) NW 0.00 h 0 W/m -7.4 C -3.9 C
29.01.2006 00:00 -4.4 C 79 % 1022.4 hPa 0.0 l/m 0.4 km/h (0 Bft) W-NW 0.00 h 0 W/m -7.5 C -4.5 C
29.01.2006 01:00 -4.8 C 80 % 1022.4 hPa 0.0 l/m 0.1 km/h (0 Bft) N 0.00 h 0 W/m -7.6 C -4.8 C
29.01.2006 02:00 -5.2 C 82 % 1022.5 hPa 0.0 l/m 0.2 km/h (0 Bft) NW 0.00 h 0 W/m -7.7 C -5.2 C
29.01.2006 03:00 -5.6 C 83 % 1023.3 hPa 0.0 l/m 0.0 km/h (0 Bft) N 0.00 h 0 W/m -8.0 C -5.6 C
29.01.2006 04:00 -6.1 C 82 % 1023.7 hPa 0.0 l/m 0.1 km/h (0 Bft) N 0.00 h 0 W/m -8.7 C -6.1 C
29.01.2006 05:00 -6.1 C 82 % 1023.8 hPa 0.0 l/m 0.0 km/h (0 Bft) N 0.00 h 0 W/m -8.7 C -6.1 C
29.01.2006 06:00 -5.1 C 82 % 1024.6 hPa 0.0 l/m 2.0 km/h (1 Bft) O 0.00 h 0 W/m -7.6 C -5.6 C
29.01.2006 07:00 -3.7 C 75 % 1024.3 hPa 0.0 l/m 5.9 km/h (2 Bft) O-SO 0.00 h 0 W/m -7.6 C -5.8 C
29.01.2006 08:00 -3.8 C 72 % 1024.4 hPa 0.0 l/m 1.2 km/h (1 Bft) O 0.00 h 27 W/m -8.1 C -4.3 C
29.01.2006 09:00 -2.2 C 62 % 1024.1 hPa 0.0 l/m 9.6 km/h (2 Bft) O-SO 0.30 h 130 W/m -8.4 C -5.3 C
29.01.2006 10:00 -1.0 C 57 % 1023.9 hPa 0.0 l/m 14.4 km/h (3 Bft) O-SO 0.77 h 232 W/m -8.4 C -5.5 C
29.01.2006 11:00 0.1 C 55 % 1024.0 hPa 0.0 l/m 15.0 km/h (3 Bft) O-SO 0.00 h 217 W/m -8.0 C -4.2 C
29.01.2006 12:00 1.9 C 50 % 1023.5 hPa 0.0 l/m 16.0 km/h (3 Bft) O-SO 0.80 h 380 W/m -7.5 C -2.1 C
29.01.2006 13:00 3.2 C 46 % 1022.7 hPa 0.0 l/m 14.9 km/h (3 Bft) O-SO 0.60 h 291 W/m -7.4 C -0.4 C
29.01.2006 14:00 3.2 C 46 % 1022.3 hPa 0.0 l/m 9.5 km/h (2 Bft) O-SO 0.13 h 188 W/m -7.4 C 0.8 C
29.01.2006 15:00 3.4 C 43 % 1022.3 hPa 0.0 l/m 9.1 km/h (2 Bft) O-SO 0.17 h 133 W/m -7.8 C 1.1 C
29.01.2006 16:00 2.1 C 49 % 1022.4 hPa 0.0 l/m 3.3 km/h (1 Bft) O-SO 0.07 h 47 W/m -7.4 C 1.3 C
29.01.2006 17:00 1.2 C 54 % 1023.3 hPa 0.0 l/m 1.3 km/h (1 Bft) O-SO 0.00 h 12 W/m -7.1 C 0.8 C
29.01.2006 18:00 -0.7 C 67 % 1023.9 hPa 0.0 l/m 0.0 km/h (0 Bft) N 0.00 h 0 W/m -6.0 C -0.7 C
29.01.2006 19:00 -1.6 C 75 % 1025.0 hPa 0.0 l/m 0.7 km/h (0 Bft) NW 0.00 h 0 W/m -5.5 C -1.6 C
29.01.2006 20:00 -2.2 C 77 % 1025.4 hPa 0.0 l/m 0.0 km/h (0 Bft) N 0.00 h 0 W/m -5.6 C -2.2 C
29.01.2006 21:00 -3.0 C 78 % 1026.3 hPa 0.0 l/m 0.0 km/h (0 Bft) N 0.00 h 0 W/m -6.3 C -3.0 C
29.01.2006 22:00 -3.8 C 81 % 1026.4 hPa 0.0 l/m 0.0 km/h (0 Bft) N 0.00 h 0 W/m -6.7 C -3.8 C
29.01.2006 23:00 -4.4 C 82 % 1026.5 hPa 0.0 l/m 0.0 km/h (0 Bft) N 0.00 h 0 W/m -6.9 C -4.4 C
Min-Datum _ 25.01.06 28.01.06 26.01.06 - 23.01.06 - - - 24.01.06 24.01.06
_ Min-Zeit 00:41 14:29 14:07 - 00:03 - - - 00:39 07:26
Minimum _ -10.6 C 40 % 1013.3 hPa - 0.0 km/h (0 Bft) - - - -17.2 C -15.6 C
Max-Datum _ 28.01.06 26.01.06 23.01.06 23.01.06 23.01.06 - 23.01.06 29.01.06 26.01.06 28.01.06
_ Max-Zeit 14:33 09:20 10:29 00:00 09:57 - 15:33 12:49 14:54 14:33
Maximum _ 4.6 C 84 % 1036.9 hPa 0.0 l/m 29.0 km/h
NO (5 Bft)
- 0.05 h 516 W/m -3.0 C 4.6 C
Durchschnitt _ -3.4 C 65 % 1024.3 hPa #0.0 l/m 3.3 km/h (1 Bft) O-SO #11:01 h 120 W/m -9.1 C -4.4 C
© Kaiko 2006